EDDM/MUC METAR and TAF weather

Enter ICAO airport designator
Station Type Date Time Source
EDDM METAR 2020/09/18 15:50 UTC NOAA

EDDM 181550Z 06008KT CAVOK 18/08 Q1024 NOSIG


Station Type Date Time Source
EDDM Decoded METAR 2020/09/18 15:50 UTC NOAA

Munchen, Germany (EDDM) 48-21N 011-47E
Sep 18, 2020 - 11:50 AM EDT / 2020.09.18 1550 UTC
Wind: from the ENE (060 degrees) at 9 MPH (8 KT):0
Visibility: greater than 7 mile(s):0
Temperature: 64 F (18 C)
Dew Point: 46 F (8 C)
Relative Humidity: 51%
Pressure (altimeter): 30.24 in. Hg (1024 hPa)
ob: EDDM 181550Z 06008KT CAVOK 18/08 Q1024 NOSIG
cycle: 16

Station Type Date Time Source
EDDM TAF 2020/09/18 12:27 UTC NOAA

TAF EDDM 181100Z 1812/1918 08010KT 9999 FEW020
BECMG 1816/1818 07005KT PROB40
TEMPO 1904/1908 BKN007

Example: see airport list